Western Titan — WCX4599 — position and weather

sailwx.info

Track history (hours):
 
Tides and Currents Weather Stations Pressure Air Temp Water Temp Dewpoint Dewpoint Depression Visibility Wind Speed Wind Dir Waves Ship Positions

Western Titan

Owner: WESTERN TOWBOAT CO, SEATTLE, WA. More information available from US FCC via Universal Licensing System and Coast Guard Vessel Documentation Center.

Last reported at 2017-Oct-14 14:36 UTC. Time now 2017-Oct-17 08:17 UTC.
Position N 54°46' W 130°56'.

Type: Tow > 200 m length. MMSI: 338854000.

Date/timePositionNaut miles runAvg speedWind from/ knotsBaromVisibWave heightAir tempDewpointWater temp
2017-Oct-14 14:36N 54°46' W 130°56'110.5
2017-Oct-14 14:28N 54°45' W 130°55'510.6
2017-Oct-14 14:00N 54°41' W 130°49'610.9
2017-Oct-14 13:29N 54°37' W 130°44'510.3
2017-Oct-14 13:00N 54°32' W 130°42'511.0
2017-Oct-14 12:30N 54°27' W 130°40'510.8
2017-Oct-14 12:00N 54°21' W 130°37'510.5
2017-Oct-14 11:30N 54°17' W 130°33'611.1
2017-Oct-14 11:00N 54°12' W 130°28'611.2
2017-Oct-14 10:30N 54°07' W 130°23'510.9
2017-Oct-14 10:00N 54°04' W 130°16'611.3
2017-Oct-14 09:30N 53°58' W 130°12'510.1
2017-Oct-14 09:00N 53°54' W 130°08'611.1
2017-Oct-14 08:30N 53°50' W 130°01'611.1
2017-Oct-14 07:57N 53°46' W 129°54'92 8.5
2017-Oct-13 21:06N 52°30' W 128°27'1 9.7
2017-Oct-13 21:00N 52°29' W 128°27'5 9.3
2017-Oct-13 20:30N 52°25' W 128°30'5 9.2
2017-Oct-13 20:00N 52°20' W 128°31'5 9.8
2017-Oct-13 19:31N 52°16' W 128°27'610.9
2017-Oct-13 19:00N 52°15' W 128°18'5 9.8
2017-Oct-13 18:30N 52°16' W 128°10'6 9.8
2017-Oct-13 17:56N 52°19' W 128°02'8 8.6
2017-Oct-13 16:58N 52°12' W 127°54'4 9.1
2017-Oct-13 16:30N 52°08' W 127°53'5 9.3
2017-Oct-13 16:00N 52°04' W 127°55'5 9.5
2017-Oct-13 15:30N 51°59' W 127°56'5 9.4
2017-Oct-13 15:00N 51°54' W 127°56'5 9.6
2017-Oct-13 14:30N 51°49' W 127°56'5 9.8
2017-Oct-13 14:00N 51°45' W 127°56'5 9.7
2017-Oct-13 13:30N 51°40' W 127°55'4 7.8
2017-Oct-13 13:01N 51°36' W 127°53'5 9.4
2017-Oct-13 12:30N 51°31' W 127°52'5 9.3
2017-Oct-13 12:00N 51°27' W 127°51'5 9.5
2017-Oct-13 11:30N 51°22' W 127°54'5 9.2
2017-Oct-13 11:00N 51°18' W 127°54'5 9.2
2017-Oct-13 10:30N 51°13' W 127°52'4 9.1
2017-Oct-13 10:00N 51°09' W 127°50'4 8.8
2017-Oct-13 09:30N 51°06' W 127°45'5 9.2
2017-Oct-13 09:00N 51°03' W 127°39'5 9.4
2017-Oct-13 08:31N 50°59' W 127°35'5 9.6
2017-Oct-13 08:00N 50°57' W 127°28'510.4
2017-Oct-13 07:30N 50°53' W 127°22'510.2
2017-Oct-13 07:00N 50°50' W 127°16'5 9.9
2017-Oct-13 06:30N 50°47' W 127°10'5 9.8
2017-Oct-13 06:00N 50°44' W 127°04'8 9.5
2017-Oct-13 05:13N 50°41' W 126°53'3 9.4
2017-Oct-13 04:55N 50°39' W 126°50'4 9.3
2017-Oct-13 04:28N 50°36' W 126°45'5 9.0
2017-Oct-13 03:58N 50°32' W 126°41'6 9.6
2017-Oct-13 03:23N 50°30' W 126°33'31 9.0
2017-Oct-13 00:00N 50°22' W 125°46'711.4
2017-Oct-12 23:24N 50°22' W 125°36'611.8
2017-Oct-12 22:54N 50°20' W 125°27'4 9.9
2017-Oct-12 22:30N 50°17' W 125°24'510.0
2017-Oct-12 22:00N 50°12' W 125°22'611.4
2017-Oct-12 21:30N 50°07' W 125°19'713.5
2017-Oct-12 21:00N 50°01' W 125°13'511.0
2017-Oct-12 20:31N 49°57' W 125°08'510.1
2017-Oct-12 20:00N 49°54' W 125°01'510.2
2017-Oct-12 19:30N 49°51' W 124°55'510.3
2017-Oct-12 19:00N 49°47' W 124°49'510.3
2017-Oct-12 18:31N 49°44' W 124°43'510.3
2017-Oct-12 18:00N 49°41' W 124°36'510.2
2017-Oct-12 17:30N 49°38' W 124°30'510.1
2017-Oct-12 17:00N 49°35' W 124°24'510.1
2017-Oct-12 16:31N 49°32' W 124°17'510.9
2017-Oct-12 16:00N 49°30' W 124°10'510.2
2017-Oct-12 15:30N 49°27' W 124°04'510.4
2017-Oct-12 15:00N 49°24' W 123°57'510.5
2017-Oct-12 14:31N 49°21' W 123°50'510.3
2017-Oct-12 14:00N 49°18' W 123°44'510.3
2017-Oct-12 13:30N 49°15' W 123°38'510.1
2017-Oct-12 13:00N 49°11' W 123°32'5 9.8
2017-Oct-12 12:30N 49°08' W 123°26'510.3
2017-Oct-12 12:01N 49°04' W 123°21'5 9.4
2017-Oct-12 11:30N 49°01' W 123°16'5 9.4
2017-Oct-12 11:00N 48°58' W 123°10'5 9.4
2017-Oct-12 10:30N 48°55' W 123°05'5 9.2
2017-Oct-12 10:00N 48°52' W 122°60'4 8.8
2017-Oct-12 09:30N 48°49' W 122°54'5 9.0
2017-Oct-12 09:00N 48°47' W 122°49'4 9.1
2017-Oct-12 08:30N 48°43' W 122°44'4 8.1
2017-Oct-12 08:00N 48°39' W 122°43'4 7.8
2017-Oct-12 07:30N 48°36' W 122°45'4 7.6
2017-Oct-12 07:00N 48°32' W 122°45'4 8.6
2017-Oct-12 06:30N 48°28' W 122°44'4 8.9
2017-Oct-12 06:00N 48°23' W 122°44'5 9.6
2017-Oct-12 05:30N 48°19' W 122°46'5 9.1
2017-Oct-12 04:58N 48°14' W 122°48'4 9.8
2017-Oct-12 04:30N 48°10' W 122°44'5 9.8
2017-Oct-12 03:59N 48°06' W 122°39'510.2
2017-Oct-12 03:30N 48°02' W 122°37'5 9.6
2017-Oct-12 03:00N 47°58' W 122°33'5 9.4
2017-Oct-12 02:31N 47°54' W 122°28'5 9.8
2017-Oct-12 02:00N 47°49' W 122°27'510.1
2017-Oct-12 01:31N 47°44' W 122°26'510.2
2017-Oct-12 01:01N 47°39' W 122°27'5 9.8
2017-Oct-12 00:30N 47°36' W 122°22'2 4.2
2017-Oct-12 00:01N 47°34' W 122°21'1 1.6
2017-Oct-11 23:30N 47°33' W 122°21'0 0.0
2017-Oct-11 23:00N 47°33' W 122°21'0 0.0
2017-Oct-11 22:30N 47°33' W 122°21'0 0.0
2017-Oct-11 22:00N 47°33' W 122°21'0 0.0
2017-Oct-11 21:29N 47°33' W 122°21'0 0.0
2017-Oct-11 21:00N 47°33' W 122°21'0 0.0
2017-Oct-11 20:30N 47°33' W 122°21'0 0.0
2017-Oct-11 20:00N 47°33' W 122°21'0 0.0
2017-Oct-11 19:30N 47°33' W 122°21'0 0.0
2017-Oct-11 19:00N 47°33' W 122°21'0 0.0
2017-Oct-11 18:30N 47°33' W 122°21'0 0.0
2017-Oct-11 18:00N 47°33' W 122°21'0 0.0
2017-Oct-11 17:27N 47°33' W 122°21'0 0.0
2017-Oct-11 17:00N 47°33' W 122°21'8 0.5
2017-Oct-11 00:00N 47°40' W 122°25'1 2.8
2017-Oct-10 23:30N 47°40' W 122°23'1 1.5
2017-Oct-10 23:00N 47°39' W 122°22'0 0.0
2017-Oct-09 08:17N 47°39' W 122°22'1 4.7
2017-Oct-09 08:00N 47°40' W 122°24'1 2.6
2017-Oct-09 07:30N 47°41' W 122°25'510.5
2017-Oct-09 07:00N 47°36' W 122°22'0 0.6
2017-Oct-09 06:30N 47°35' W 122°22'0 0.1
2017-Oct-09 06:00N 47°35' W 122°22'1 1.1
2017-Oct-09 05:30N 47°36' W 122°23'4 7.7
2017-Oct-09 05:00N 47°38' W 122°27'4 8.2
2017-Oct-09 04:30N 47°43' W 122°28'4 8.6
2017-Oct-09 04:00N 47°47' W 122°27'4 8.7
2017-Oct-09 03:30N 47°51' W 122°29'4 8.4
2017-Oct-09 03:00N 47°55' W 122°30'5 9.2
2017-Oct-09 02:30N 47°58' W 122°36'7 9.2
2017-Oct-09 01:45N 48°04' W 122°40'16 9.6
2017-Oct-09 00:03N 48°20' W 122°46'1 9.3
2017-Oct-08 23:54N 48°21' W 122°46'4 8.9
2017-Oct-08 23:30N 48°25' W 122°45'4 9.0
2017-Oct-08 23:00N 48°29' W 122°45'5 9.1
2017-Oct-08 22:30N 48°34' W 122°45'5 9.5
2017-Oct-08 22:00N 48°39' W 122°44'5 9.4
2017-Oct-08 21:30N 48°43' W 122°45'5 9.4
2017-Oct-08 21:00N 48°46' W 122°51'5 9.8
2017-Oct-08 20:30N 48°49' W 122°57'510.0
2017-Oct-08 20:00N 48°52' W 123°03'5 9.9
2017-Oct-08 19:30N 48°55' W 123°09'510.2
2017-Oct-08 19:00N 48°58' W 123°15'510.3
2017-Oct-08 18:30N 49°01' W 123°21'510.4
2017-Oct-08 18:00N 49°05' W 123°27'5 9.6
2017-Oct-08 17:30N 49°08' W 123°33'5 9.9
2017-Oct-08 17:00N 49°11' W 123°39'510.1
2017-Oct-08 16:30N 49°13' W 123°46'510.0
2017-Oct-08 16:00N 49°16' W 123°52'5 9.9
2017-Oct-08 15:30N 49°19' W 123°58'510.1
2017-Oct-08 15:00N 49°21' W 124°06'510.2
2017-Oct-08 14:30N 49°23' W 124°12'5 9.7
2017-Oct-08 14:00N 49°26' W 124°19'5 9.6
2017-Oct-08 13:30N 49°29' W 124°24'510.0
2017-Oct-08 13:00N 49°32' W 124°30'5 9.9
2017-Oct-08 12:30N 49°36' W 124°35'5 9.7
2017-Oct-08 12:00N 49°39' W 124°41'5 9.5
2017-Oct-08 11:30N 49°42' W 124°46'5 9.7
2017-Oct-08 11:01N 49°46' W 124°51'5 9.7
2017-Oct-08 10:30N 49°49' W 124°57'5 9.7
2017-Oct-08 10:00N 49°53' W 125°02'5 9.5
2017-Oct-08 09:30N 49°56' W 125°07'510.2
2017-Oct-08 09:00N 49°60' W 125°12'510.5
2017-Oct-08 08:30N 50°05' W 125°16'4 8.7
2017-Oct-08 08:00N 50°07' W 125°21'3 5.8
2017-Oct-08 07:30N 50°10' W 125°22'2 3.6
2017-Oct-08 07:00N 50°12' W 125°22'2 3.3
2017-Oct-08 06:31N 50°14' W 125°23'2 3.4
2017-Oct-08 06:00N 50°15' W 125°23'2 3.1
2017-Oct-08 05:30N 50°17' W 125°24'2 3.5
2017-Oct-08 05:00N 50°18' W 125°25'2 4.1
2017-Oct-08 04:30N 50°20' W 125°26'4 4.1
2017-Oct-08 03:39N 50°21' W 125°31'1 2.8
2017-Oct-08 03:24N 50°21' W 125°32'10 4.2
2017-Oct-08 01:07N 50°22' W 125°47'41 8.9
2017-Oct-07 20:31N 50°38' W 126°47'310.9
2017-Oct-07 20:13N 50°40' W 126°51'410.0
2017-Oct-07 19:49N 50°42' W 126°56'3 8.0
2017-Oct-07 19:24N 50°43' W 127°01'4 9.5
2017-Oct-07 19:00N 50°45' W 127°06'5 9.8
2017-Oct-07 18:30N 50°48' W 127°12'5 9.7
2017-Oct-07 17:59N 50°51' W 127°18'4 9.4
2017-Oct-07 17:31N 50°54' W 127°24'4 8.6
2017-Oct-07 17:00N 50°57' W 127°29'4 8.5
2017-Oct-07 16:30N 50°59' W 127°34'4 8.0
2017-Oct-07 16:01N 51°02' W 127°38'4 7.9
2017-Oct-07 15:30N 51°05' W 127°43'4 8.3
2017-Oct-07 15:00N 51°08' W 127°48'4 8.1
2017-Oct-07 14:30N 51°11' W 127°51'4 8.2
2017-Oct-07 14:00N 51°15' W 127°53'4 8.8
2017-Oct-07 13:30N 51°20' W 127°54'4 8.6
2017-Oct-07 13:00N 51°24' W 127°53'5 9.1
2017-Oct-07 12:30N 51°28' W 127°51'5 9.3
2017-Oct-07 12:01N 51°33' W 127°52'5 9.5
2017-Oct-07 11:31N 51°37' W 127°53'5 9.3
2017-Oct-07 11:00N 51°42' W 127°55'5 9.5
2017-Oct-07 10:31N 51°47' W 127°56'4 8.6
2017-Oct-07 10:01N 51°51' W 127°56'4 8.1
2017-Oct-07 09:30N 51°55' W 127°56'4 8.5
2017-Oct-07 09:01N 51°59' W 127°56'4 8.3
2017-Oct-07 08:31N 52°03' W 127°55'4 8.2
2017-Oct-07 08:00N 52°05' W 128°02'4 8.1
2017-Oct-07 07:31N 52°06' W 128°08'4 8.4
2017-Oct-07 07:00N 52°11' W 128°07'4 7.2
2017-Oct-07 06:31N 52°13' W 128°11'510.2
2017-Oct-07 06:00N 52°15' W 128°19'5 9.2
2017-Oct-07 05:30N 52°16' W 128°26'4 7.3
2017-Oct-07 05:01N 52°19' W 128°30'4 7.5
2017-Oct-07 04:31N 52°22' W 128°32'4 8.3
2017-Oct-07 04:00N 52°26' W 128°28'102 8.4
2017-Oct-06 15:56N 53°51' W 130°02'4 9.7
2017-Oct-06 15:30N 53°53' W 130°07'5 9.3
2017-Oct-06 15:01N 53°57' W 130°12'5 9.3
2017-Oct-06 14:31N 54°02' W 130°14'5 9.3
2017-Oct-06 14:00N 54°05' W 130°19'4 8.3
2017-Oct-06 13:30N 54°08' W 130°24'5 9.6
2017-Oct-06 13:00N 54°12' W 130°28'5 9.1
2017-Oct-06 12:31N 54°16' W 130°33'4 8.0
2017-Oct-06 12:00N 54°19' W 130°36'4 7.3
2017-Oct-06 11:30N 54°23' W 130°38'4 7.6
2017-Oct-06 10:58N 54°27' W 130°40'4 8.0
2017-Oct-06 10:30N 54°30' W 130°42'  
Track history (hours):
 
Tides and Currents Weather Stations Pressure Air Temp Water Temp Dewpoint Dewpoint Depression Visibility Wind Speed Wind Dir Waves Ship Positions

Western Titan

Owner: WESTERN TOWBOAT CO, SEATTLE, WA. More information available from US FCC via Universal Licensing System and Coast Guard Vessel Documentation Center.

Last reported at 2017-Oct-14 14:36 UTC. Time now 2017-Oct-17 08:17 UTC.
Position N 54°46' W 130°56'.

Type: Tow > 200 m length. MMSI: 338854000.

Date/timePositionNaut miles runAvg speedWind from/ knotsBaromVisibWave heightAir tempDewpointWater temp
2017-Oct-14 14:36N 54°46' W 130°56'110.5
2017-Oct-14 14:28N 54°45' W 130°55'510.6
2017-Oct-14 14:00N 54°41' W 130°49'610.9
2017-Oct-14 13:29N 54°37' W 130°44'510.3
2017-Oct-14 13:00N 54°32' W 130°42'511.0
2017-Oct-14 12:30N 54°27' W 130°40'510.8
2017-Oct-14 12:00N 54°21' W 130°37'510.5
2017-Oct-14 11:30N 54°17' W 130°33'611.1
2017-Oct-14 11:00N 54°12' W 130°28'611.2
2017-Oct-14 10:30N 54°07' W 130°23'510.9
2017-Oct-14 10:00N 54°04' W 130°16'611.3
2017-Oct-14 09:30N 53°58' W 130°12'510.1
2017-Oct-14 09:00N 53°54' W 130°08'611.1
2017-Oct-14 08:30N 53°50' W 130°01'611.1
2017-Oct-14 07:57N 53°46' W 129°54'92 8.5
2017-Oct-13 21:06N 52°30' W 128°27'1 9.7
2017-Oct-13 21:00N 52°29' W 128°27'5 9.3
2017-Oct-13 20:30N 52°25' W 128°30'5 9.2
2017-Oct-13 20:00N 52°20' W 128°31'5 9.8
2017-Oct-13 19:31N 52°16' W 128°27'610.9
2017-Oct-13 19:00N 52°15' W 128°18'5 9.8
2017-Oct-13 18:30N 52°16' W 128°10'6 9.8
2017-Oct-13 17:56N 52°19' W 128°02'8 8.6
2017-Oct-13 16:58N 52°12' W 127°54'4 9.1
2017-Oct-13 16:30N 52°08' W 127°53'5 9.3
2017-Oct-13 16:00N 52°04' W 127°55'5 9.5
2017-Oct-13 15:30N 51°59' W 127°56'5 9.4
2017-Oct-13 15:00N 51°54' W 127°56'5 9.6
2017-Oct-13 14:30N 51°49' W 127°56'5 9.8
2017-Oct-13 14:00N 51°45' W 127°56'5 9.7
2017-Oct-13 13:30N 51°40' W 127°55'4 7.8
2017-Oct-13 13:01N 51°36' W 127°53'5 9.4
2017-Oct-13 12:30N 51°31' W 127°52'5 9.3
2017-Oct-13 12:00N 51°27' W 127°51'5 9.5
2017-Oct-13 11:30N 51°22' W 127°54'5 9.2
2017-Oct-13 11:00N 51°18' W 127°54'5 9.2
2017-Oct-13 10:30N 51°13' W 127°52'4 9.1
2017-Oct-13 10:00N 51°09' W 127°50'4 8.8
2017-Oct-13 09:30N 51°06' W 127°45'5 9.2
2017-Oct-13 09:00N 51°03' W 127°39'5 9.4
2017-Oct-13 08:31N 50°59' W 127°35'5 9.6
2017-Oct-13 08:00N 50°57' W 127°28'510.4
2017-Oct-13 07:30N 50°53' W 127°22'510.2
2017-Oct-13 07:00N 50°50' W 127°16'5 9.9
2017-Oct-13 06:30N 50°47' W 127°10'5 9.8
2017-Oct-13 06:00N 50°44' W 127°04'8 9.5
2017-Oct-13 05:13N 50°41' W 126°53'3 9.4
2017-Oct-13 04:55N 50°39' W 126°50'4 9.3
2017-Oct-13 04:28N 50°36' W 126°45'5 9.0
2017-Oct-13 03:58N 50°32' W 126°41'6 9.6
2017-Oct-13 03:23N 50°30' W 126°33'31 9.0
2017-Oct-13 00:00N 50°22' W 125°46'711.4
2017-Oct-12 23:24N 50°22' W 125°36'611.8
2017-Oct-12 22:54N 50°20' W 125°27'4 9.9
2017-Oct-12 22:30N 50°17' W 125°24'510.0
2017-Oct-12 22:00N 50°12' W 125°22'611.4
2017-Oct-12 21:30N 50°07' W 125°19'713.5
2017-Oct-12 21:00N 50°01' W 125°13'511.0
2017-Oct-12 20:31N 49°57' W 125°08'510.1
2017-Oct-12 20:00N 49°54' W 125°01'510.2
2017-Oct-12 19:30N 49°51' W 124°55'510.3
2017-Oct-12 19:00N 49°47' W 124°49'510.3
2017-Oct-12 18:31N 49°44' W 124°43'510.3
2017-Oct-12 18:00N 49°41' W 124°36'510.2
2017-Oct-12 17:30N 49°38' W 124°30'510.1
2017-Oct-12 17:00N 49°35' W 124°24'510.1
2017-Oct-12 16:31N 49°32' W 124°17'510.9
2017-Oct-12 16:00N 49°30' W 124°10'510.2
2017-Oct-12 15:30N 49°27' W 124°04'510.4
2017-Oct-12 15:00N 49°24' W 123°57'510.5
2017-Oct-12 14:31N 49°21' W 123°50'510.3
2017-Oct-12 14:00N 49°18' W 123°44'510.3
2017-Oct-12 13:30N 49°15' W 123°38'510.1
2017-Oct-12 13:00N 49°11' W 123°32'5 9.8
2017-Oct-12 12:30N 49°08' W 123°26'510.3
2017-Oct-12 12:01N 49°04' W 123°21'5 9.4
2017-Oct-12 11:30N 49°01' W 123°16'5 9.4
2017-Oct-12 11:00N 48°58' W 123°10'5 9.4
2017-Oct-12 10:30N 48°55' W 123°05'5 9.2
2017-Oct-12 10:00N 48°52' W 122°60'4 8.8
2017-Oct-12 09:30N 48°49' W 122°54'5 9.0
2017-Oct-12 09:00N 48°47' W 122°49'4 9.1
2017-Oct-12 08:30N 48°43' W 122°44'4 8.1
2017-Oct-12 08:00N 48°39' W 122°43'4 7.8
2017-Oct-12 07:30N 48°36' W 122°45'4 7.6
2017-Oct-12 07:00N 48°32' W 122°45'4 8.6
2017-Oct-12 06:30N 48°28' W 122°44'4 8.9
2017-Oct-12 06:00N 48°23' W 122°44'5 9.6
2017-Oct-12 05:30N 48°19' W 122°46'5 9.1
2017-Oct-12 04:58N 48°14' W 122°48'4 9.8
2017-Oct-12 04:30N 48°10' W 122°44'5 9.8
2017-Oct-12 03:59N 48°06' W 122°39'510.2
2017-Oct-12 03:30N 48°02' W 122°37'5 9.6
2017-Oct-12 03:00N 47°58' W 122°33'5 9.4
2017-Oct-12 02:31N 47°54' W 122°28'5 9.8
2017-Oct-12 02:00N 47°49' W 122°27'510.1
2017-Oct-12 01:31N 47°44' W 122°26'510.2
2017-Oct-12 01:01N 47°39' W 122°27'5 9.8
2017-Oct-12 00:30N 47°36' W 122°22'2 4.2
2017-Oct-12 00:01N 47°34' W 122°21'1 1.6
2017-Oct-11 23:30N 47°33' W 122°21'0 0.0
2017-Oct-11 23:00N 47°33' W 122°21'0 0.0
2017-Oct-11 22:30N 47°33' W 122°21'0 0.0
2017-Oct-11 22:00N 47°33' W 122°21'0 0.0
2017-Oct-11 21:29N 47°33' W 122°21'0 0.0
2017-Oct-11 21:00N 47°33' W 122°21'0 0.0
2017-Oct-11 20:30N 47°33' W 122°21'0 0.0
2017-Oct-11 20:00N 47°33' W 122°21'0 0.0
2017-Oct-11 19:30N 47°33' W 122°21'0 0.0
2017-Oct-11 19:00N 47°33' W 122°21'0 0.0
2017-Oct-11 18:30N 47°33' W 122°21'0 0.0
2017-Oct-11 18:00N 47°33' W 122°21'0 0.0
2017-Oct-11 17:27N 47°33' W 122°21'0 0.0
2017-Oct-11 17:00N 47°33' W 122°21'8 0.5
2017-Oct-11 00:00N 47°40' W 122°25'1 2.8
2017-Oct-10 23:30N 47°40' W 122°23'1 1.5
2017-Oct-10 23:00N 47°39' W 122°22'0 0.0
2017-Oct-09 08:17N 47°39' W 122°22'1 4.7
2017-Oct-09 08:00N 47°40' W 122°24'1 2.6
2017-Oct-09 07:30N 47°41' W 122°25'510.5
2017-Oct-09 07:00N 47°36' W 122°22'0 0.6
2017-Oct-09 06:30N 47°35' W 122°22'0 0.1
2017-Oct-09 06:00N 47°35' W 122°22'1 1.1
2017-Oct-09 05:30N 47°36' W 122°23'4 7.7
2017-Oct-09 05:00N 47°38' W 122°27'4 8.2
2017-Oct-09 04:30N 47°43' W 122°28'4 8.6
2017-Oct-09 04:00N 47°47' W 122°27'4 8.7
2017-Oct-09 03:30N 47°51' W 122°29'4 8.4
2017-Oct-09 03:00N 47°55' W 122°30'5 9.2
2017-Oct-09 02:30N 47°58' W 122°36'7 9.2
2017-Oct-09 01:45N 48°04' W 122°40'16 9.6
2017-Oct-09 00:03N 48°20' W 122°46'1 9.3
2017-Oct-08 23:54N 48°21' W 122°46'4 8.9
2017-Oct-08 23:30N 48°25' W 122°45'4 9.0
2017-Oct-08 23:00N 48°29' W 122°45'5 9.1
2017-Oct-08 22:30N 48°34' W 122°45'5 9.5
2017-Oct-08 22:00N 48°39' W 122°44'5 9.4
2017-Oct-08 21:30N 48°43' W 122°45'5 9.4
2017-Oct-08 21:00N 48°46' W 122°51'5 9.8
2017-Oct-08 20:30N 48°49' W 122°57'510.0
2017-Oct-08 20:00N 48°52' W 123°03'5 9.9
2017-Oct-08 19:30N 48°55' W 123°09'510.2
2017-Oct-08 19:00N 48°58' W 123°15'510.3
2017-Oct-08 18:30N 49°01' W 123°21'510.4
2017-Oct-08 18:00N 49°05' W 123°27'5 9.6
2017-Oct-08 17:30N 49°08' W 123°33'5 9.9
2017-Oct-08 17:00N 49°11' W 123°39'510.1
2017-Oct-08 16:30N 49°13' W 123°46'510.0
2017-Oct-08 16:00N 49°16' W 123°52'5 9.9
2017-Oct-08 15:30N 49°19' W 123°58'510.1
2017-Oct-08 15:00N 49°21' W 124°06'510.2
2017-Oct-08 14:30N 49°23' W 124°12'5 9.7
2017-Oct-08 14:00N 49°26' W 124°19'5 9.6
2017-Oct-08 13:30N 49°29' W 124°24'510.0
2017-Oct-08 13:00N 49°32' W 124°30'5 9.9
2017-Oct-08 12:30N 49°36' W 124°35'5 9.7
2017-Oct-08 12:00N 49°39' W 124°41'5 9.5
2017-Oct-08 11:30N 49°42' W 124°46'5 9.7
2017-Oct-08 11:01N 49°46' W 124°51'5 9.7
2017-Oct-08 10:30N 49°49' W 124°57'5 9.7
2017-Oct-08 10:00N 49°53' W 125°02'5 9.5
2017-Oct-08 09:30N 49°56' W 125°07'510.2
2017-Oct-08 09:00N 49°60' W 125°12'510.5
2017-Oct-08 08:30N 50°05' W 125°16'4 8.7
2017-Oct-08 08:00N 50°07' W 125°21'3 5.8
2017-Oct-08 07:30N 50°10' W 125°22'2 3.6
2017-Oct-08 07:00N 50°12' W 125°22'2 3.3
2017-Oct-08 06:31N 50°14' W 125°23'2 3.4
2017-Oct-08 06:00N 50°15' W 125°23'2 3.1
2017-Oct-08 05:30N 50°17' W 125°24'2 3.5
2017-Oct-08 05:00N 50°18' W 125°25'2 4.1
2017-Oct-08 04:30N 50°20' W 125°26'4 4.1
2017-Oct-08 03:39N 50°21' W 125°31'1 2.8
2017-Oct-08 03:24N 50°21' W 125°32'10 4.2
2017-Oct-08 01:07N 50°22' W 125°47'41 8.9
2017-Oct-07 20:31N 50°38' W 126°47'310.9
2017-Oct-07 20:13N 50°40' W 126°51'410.0
2017-Oct-07 19:49N 50°42' W 126°56'3 8.0
2017-Oct-07 19:24N 50°43' W 127°01'4 9.5
2017-Oct-07 19:00N 50°45' W 127°06'5 9.8
2017-Oct-07 18:30N 50°48' W 127°12'5 9.7
2017-Oct-07 17:59N 50°51' W 127°18'4 9.4
2017-Oct-07 17:31N 50°54' W 127°24'4 8.6
2017-Oct-07 17:00N 50°57' W 127°29'4 8.5
2017-Oct-07 16:30N 50°59' W 127°34'4 8.0
2017-Oct-07 16:01N 51°02' W 127°38'4 7.9
2017-Oct-07 15:30N 51°05' W 127°43'4 8.3
2017-Oct-07 15:00N 51°08' W 127°48'4 8.1
2017-Oct-07 14:30N 51°11' W 127°51'4 8.2
2017-Oct-07 14:00N 51°15' W 127°53'4 8.8
2017-Oct-07 13:30N 51°20' W 127°54'4 8.6
2017-Oct-07 13:00N 51°24' W 127°53'5 9.1
2017-Oct-07 12:30N 51°28' W 127°51'5 9.3
2017-Oct-07 12:01N 51°33' W 127°52'5 9.5
2017-Oct-07 11:31N 51°37' W 127°53'5 9.3
2017-Oct-07 11:00N 51°42' W 127°55'5 9.5
2017-Oct-07 10:31N 51°47' W 127°56'4 8.6
2017-Oct-07 10:01N 51°51' W 127°56'4 8.1
2017-Oct-07 09:30N 51°55' W 127°56'4 8.5
2017-Oct-07 09:01N 51°59' W 127°56'4 8.3
2017-Oct-07 08:31N 52°03' W 127°55'4 8.2
2017-Oct-07 08:00N 52°05' W 128°02'4 8.1
2017-Oct-07 07:31N 52°06' W 128°08'4 8.4
2017-Oct-07 07:00N 52°11' W 128°07'4 7.2
2017-Oct-07 06:31N 52°13' W 128°11'510.2
2017-Oct-07 06:00N 52°15' W 128°19'5 9.2
2017-Oct-07 05:30N 52°16' W 128°26'4 7.3
2017-Oct-07 05:01N 52°19' W 128°30'4 7.5
2017-Oct-07 04:31N 52°22' W 128°32'4 8.3
2017-Oct-07 04:00N 52°26' W 128°28'102 8.4
2017-Oct-06 15:56N 53°51' W 130°02'4 9.7
2017-Oct-06 15:30N 53°53' W 130°07'5 9.3
2017-Oct-06 15:01N 53°57' W 130°12'5 9.3
2017-Oct-06 14:31N 54°02' W 130°14'5 9.3
2017-Oct-06 14:00N 54°05' W 130°19'4 8.3
2017-Oct-06 13:30N 54°08' W 130°24'5 9.6
2017-Oct-06 13:00N 54°12' W 130°28'5 9.1
2017-Oct-06 12:31N 54°16' W 130°33'4 8.0
2017-Oct-06 12:00N 54°19' W 130°36'4 7.3
2017-Oct-06 11:30N 54°23' W 130°38'4 7.6
2017-Oct-06 10:58N 54°27' W 130°40'4 8.0
2017-Oct-06 10:30N 54°30' W 130°42'  

Dump ship's entire track history